Time;durP1;ratioP1;P1;durP2;ratioP2;P2;SDS_P1;SDS_P2;PMS_P1;PMS_P2;Temp;Humidity;BMP_temperature;BMP_pressure;BME280_temperature;BME280_humidity;BME280_pressure;Samples;Min_cycle;Max_cycle;Signal;HPM_P1;HPM_P2
2023/06/05 00:01:13;;;;;;;6.40;1.23;;;;;;;20.44;64.52;99457.91;6097099;23;20264;-86
2023/06/05 00:03:43;;;;;;;6.10;1.57;;;;;;;20.38;64.90;99469.06;6097224;23;20162;-86
2023/06/05 00:06:08;;;;;;;10.43;1.53;;;;;;;20.34;65.08;99476.47;6097360;23;20191;-86
2023/06/05 00:08:35;;;;;;;7.03;1.40;;;;;;;20.23;66.01;99485.41;6097016;23;20157;-86
2023/06/05 00:11:02;;;;;;;8.93;1.80;;;;;;;20.15;66.79;99481.69;6096150;23;20160;-86
2023/06/05 00:13:29;;;;;;;3.93;1.70;;;;;;;20.06;67.61;99480.66;6097170;23;20156;-86
2023/06/05 00:15:56;;;;;;;7.77;1.87;;;;;;;19.98;68.38;99483.13;6097060;23;20154;-86
2023/06/05 00:18:22;;;;;;;6.20;1.83;;;;;;;19.97;68.33;99483.25;6097074;23;20160;-86
2023/06/05 00:20:49;;;;;;;6.13;1.70;;;;;;;19.90;68.77;99480.28;6097421;23;20156;-86
2023/06/05 00:23:16;;;;;;;4.60;1.40;;;;;;;19.91;69.09;99479.31;6096978;23;20190;-86
2023/06/05 00:25:42;;;;;;;6.43;2.20;;;;;;;19.90;69.32;99466.97;6095779;23;20245;-86
2023/06/05 00:28:09;;;;;;;9.17;2.43;;;;;;;20.00;69.21;99472.34;6097049;23;20149;-86
2023/06/05 00:30:37;;;;;;;7.40;1.67;;;;;;;20.00;68.71;99472.34;6097346;23;20483;-86
2023/06/05 00:33:04;;;;;;;3.37;1.43;;;;;;;20.02;68.33;99468.59;6096981;23;20145;-86
2023/06/05 00:35:31;;;;;;;5.53;1.30;;;;;;;20.01;68.12;99466.91;6097372;23;20156;-86
2023/06/05 00:37:58;;;;;;;2.47;1.23;;;;;;;20.04;67.71;99473.78;6096952;23;20152;-86
2023/06/05 00:40:25;;;;;;;12.07;2.03;;;;;;;20.00;67.00;99462.56;6097103;23;20152;-86
2023/06/05 00:42:52;;;;;;;6.13;1.30;;;;;;;19.94;66.72;99465.72;6096908;23;20207;-86
2023/06/05 00:45:19;;;;;;;6.23;1.20;;;;;;;19.87;66.39;99461.91;6096115;23;20161;-86
2023/06/05 00:47:45;;;;;;;4.10;1.30;;;;;;;20.05;65.39;99460.34;6096964;23;20152;-86
2023/06/05 00:50:12;;;;;;;9.10;1.83;;;;;;;20.15;64.55;99461.22;6096973;23;20526;-86
2023/06/05 00:52:40;;;;;;;6.00;1.30;;;;;;;20.16;64.48;99467.41;6097059;23;20151;-86
2023/06/05 00:55:08;;;;;;;5.67;1.00;;;;;;;20.14;64.78;99467.53;6097246;23;20231;-86
2023/06/05 00:57:35;;;;;;;5.33;1.30;;;;;;;20.07;64.83;99466.38;6097135;23;20151;-86
2023/06/05 01:00:06;;;;;;;3.37;1.27;;;;;;;20.08;64.75;99467.22;6096858;23;20162;-86
2023/06/05 01:02:34;;;;;;;4.93;1.43;;;;;;;20.01;64.83;99469.56;6097184;23;20164;-86
2023/06/05 01:05:00;;;;;;;3.50;1.10;;;;;;;20.01;64.42;99458.94;6097265;23;20228;-86
2023/06/05 01:07:27;;;;;;;9.43;1.47;;;;;;;20.12;62.78;99461.53;6096890;23;20158;-86
2023/06/05 01:09:54;;;;;;;5.87;1.20;;;;;;;20.08;63.03;99468.06;6096885;23;20148;-86
2023/06/05 01:12:33;;;;;;;4.90;1.50;;;;;;;20.12;62.09;99461.53;6096780;23;20149;-86
2023/06/05 01:15:02;;;;;;;6.67;1.20;;;;;;;20.07;61.76;99455.72;6096411;23;20584;-86
2023/06/05 01:17:32;;;;;;;5.23;1.00;;;;;;;20.12;61.43;99461.53;6096845;23;20152;-86
2023/06/05 01:20:00;;;;;;;4.90;1.37;;;;;;;20.21;60.47;99459.84;6098558;23;20140;-86
2023/06/05 01:22:26;;;;;;;7.13;1.10;;;;;;;20.22;60.04;99469.53;6097125;23;20655;-86
2023/06/05 01:24:53;;;;;;;3.37;1.23;;;;;;;20.18;60.36;99458.31;6097619;23;20168;-86
2023/06/05 01:27:26;;;;;;;3.10;0.97;;;;;;;20.10;60.78;99455.47;6099086;23;20239;-86
2023/06/05 01:30:08;;;;;;;4.17;0.97;;;;;;;19.94;61.81;99460.41;6098992;23;20194;-86
2023/06/05 01:32:56;;;;;;;4.03;1.37;;;;;;;19.84;62.54;99462.19;6098833;23;20139;-86
2023/06/05 01:35:27;;;;;;;9.80;1.43;;;;;;;19.82;62.36;99464.13;6098580;23;20137;-86
2023/06/05 01:37:58;;;;;;;8.53;1.13;;;;;;;19.85;62.79;99463.03;6098698;23;20132;-86
2023/06/05 01:40:26;;;;;;;5.47;1.67;;;;;;;19.81;63.32;99467.75;6099387;23;20534;-86
2023/06/05 01:42:53;;;;;;;5.63;1.13;;;;;;;19.84;63.36;99464.84;6098515;23;20181;-86
2023/06/05 01:45:21;;;;;;;2.53;0.90;;;;;;;19.89;62.96;99470.59;6121572;23;20161;-86
2023/06/05 01:47:48;;;;;;;3.67;1.00;;;;;;;20.01;62.46;99479.38;6098522;23;20152;-86
2023/06/05 01:50:14;;;;;;;6.07;1.10;;;;;;;20.00;62.51;99483.84;6098550;23;20156;-86
2023/06/05 01:52:41;;;;;;;3.83;1.77;;;;;;;20.06;62.37;99470.03;6097287;23;20173;-86
2023/06/05 01:55:20;;;;;;;3.13;1.20;;;;;;;20.02;62.30;99467.75;6099164;23;20153;-86
2023/06/05 01:57:47;;;;;;;4.77;2.17;;;;;;;19.96;62.21;99465.63;6099136;23;20144;-86
2023/06/05 02:00:21;;;;;;;4.10;1.20;;;;;;;19.89;61.06;99459.97;6098426;23;20569;-86
2023/06/05 02:02:49;;;;;;;11.97;1.33;;;;;;;19.82;60.34;99464.13;6098734;23;20164;-86
2023/06/05 02:05:19;;;;;;;3.37;1.17;;;;;;;19.90;60.35;99461.66;6097112;23;20157;-86
2023/06/05 02:07:49;;;;;;;6.43;1.40;;;;;;;19.87;60.32;99456.59;6099124;23;20156;-86
2023/06/05 02:10:18;;;;;;;3.63;1.20;;;;;;;19.82;61.02;99461.47;6097033;23;20611;-86
2023/06/05 02:12:46;;;;;;;7.60;1.30;;;;;;;19.85;61.19;99465.69;6098325;23;20149;-86
2023/06/05 02:15:13;;;;;;;14.03;1.53;;;;;;;19.84;61.60;99462.19;6097113;23;20152;-86
2023/06/05 02:17:44;;;;;;;7.53;1.00;;;;;;;19.90;61.79;99460.81;6098403;23;20580;-86
2023/06/05 02:20:12;;;;;;;5.73;1.17;;;;;;;19.95;61.64;99462.13;6098572;23;20617;-86
2023/06/05 02:22:42;;;;;;;8.63;1.30;;;;;;;19.90;61.61;99461.66;6097999;23;20232;-86
2023/06/05 02:25:11;;;;;;;5.53;1.20;;;;;;;19.88;61.65;99463.63;6098118;23;20488;-86
2023/06/05 02:27:38;;;;;;;4.40;1.23;;;;;;;19.87;61.59;99461.91;6097935;23;20158;-86
2023/06/05 02:30:07;;;;;;;2.90;1.20;;;;;;;19.93;61.17;99469.38;6098397;23;20191;-86
2023/06/05 02:32:32;;;;;;;5.93;0.83;;;;;;;19.99;60.01;99476.84;6098072;23;20227;-86
2023/06/05 02:34:58;;;;;;;6.53;1.27;;;;;;;20.00;59.71;99473.19;6098434;23;20240;-86
2023/06/05 02:37:26;;;;;;;5.33;0.87;;;;;;;19.98;59.56;99477.81;6098402;23;20159;-86
2023/06/05 02:39:53;;;;;;;3.27;1.30;;;;;;;19.99;59.51;99473.34;6098014;23;20161;-86
2023/06/05 02:42:19;;;;;;;3.97;1.37;;;;;;;19.97;59.57;99468.13;6098266;23;20188;-86
2023/06/05 02:44:46;;;;;;;6.60;1.13;;;;;;;19.92;59.95;99465.03;6098016;23;20163;-86
2023/06/05 02:47:13;;;;;;;7.43;1.07;;;;;;;19.88;60.72;99468.94;6097934;23;20152;-86
2023/06/05 02:49:40;;;;;;;3.63;0.90;;;;;;;19.86;60.95;99468.22;6098533;23;20219;-86
2023/06/05 02:52:05;;;;;;;3.93;1.00;;;;;;;19.85;61.14;99473.66;6098105;23;20148;-86
2023/06/05 02:54:31;;;;;;;5.13;1.10;;;;;;;19.81;61.31;99475.72;6097849;23;20152;-86
2023/06/05 02:57:00;;;;;;;5.57;1.20;;;;;;;19.83;61.49;99465.84;6096911;23;20239;-86
2023/06/05 02:59:27;;;;;;;4.20;1.20;;;;;;;19.85;61.33;99466.53;6097779;23;20153;-86
2023/06/05 03:01:54;;;;;;;3.50;0.90;;;;;;;19.89;61.16;99475.13;6098316;23;20176;-86
2023/06/05 03:04:24;;;;;;;4.13;1.10;;;;;;;19.93;61.50;99472.06;6097651;23;20152;-86
2023/06/05 03:06:53;;;;;;;5.93;1.60;;;;;;;19.97;61.06;99476.13;6097723;23;20167;-86
2023/06/05 03:09:20;;;;;;;17.40;2.30;;;;;;;19.87;62.11;99477.88;6097662;23;20148;-86
2023/06/05 03:11:45;;;;;;;9.53;1.50;;;;;;;19.83;62.69;99479.13;6097708;23;20227;-86
2023/06/05 03:14:12;;;;;;;5.20;1.90;;;;;;;19.81;62.96;99483.72;6097640;23;20179;-86
2023/06/05 03:16:41;;;;;;;8.37;2.27;;;;;;;19.82;63.07;99482.75;6098272;23;20223;-86
2023/06/05 03:19:09;;;;;;;3.77;1.43;;;;;;;19.88;62.93;99484.06;6098228;23;20219;-86
2023/06/05 03:21:37;;;;;;;4.83;1.70;;;;;;;19.89;62.52;99488.41;6096210;23;20532;-86
2023/06/05 03:24:06;;;;;;;4.37;1.07;;;;;;;19.85;62.00;99495.81;6097359;23;20164;-86
2023/06/05 03:26:33;;;;;;;8.13;1.60;;;;;;;19.84;61.87;99493.25;6097561;23;20152;-86
2023/06/05 03:29:00;;;;;;;7.70;3.27;;;;;;;19.89;61.81;99491.06;6097505;23;20492;-86
2023/06/05 03:31:27;;;;;;;4.67;1.57;;;;;;;19.89;62.56;99481.25;6097439;23;20159;-86
2023/06/05 03:33:54;;;;;;;9.63;3.13;;;;;;;19.96;62.61;99493.06;6097433;23;20165;-86
2023/06/05 03:36:21;;;;;;;8.60;2.90;;;;;;;19.98;62.82;99485.81;6096065;23;20505;-86
2023/06/05 03:38:47;;;;;;;8.03;3.77;;;;;;;19.95;63.55;99493.19;6097578;23;20576;-86
2023/06/05 03:41:14;;;;;;;11.27;5.90;;;;;;;19.98;63.58;99485.81;6097199;23;20148;-86
2023/06/05 03:43:41;;;;;;;15.27;6.50;;;;;;;20.02;63.47;99478.41;6097270;23;20525;-86
2023/06/05 03:46:07;;;;;;;12.70;6.73;;;;;;;20.00;63.13;99478.53;6097990;23;20155;-87
2023/06/05 03:48:34;;;;;;;13.27;5.87;;;;;;;20.01;63.27;99479.38;6095838;23;20239;-87
2023/06/05 03:51:01;;;;;;;13.23;4.17;;;;;;;20.04;63.20;99485.28;6096077;23;20196;-86
2023/06/05 03:53:30;;;;;;;4.40;1.97;;;;;;;20.17;62.30;99477.09;6095988;23;20156;-86
2023/06/05 03:55:59;;;;;;;6.23;2.20;;;;;;;20.21;61.75;99476.66;6095712;23;20172;-86
2023/06/05 03:58:26;;;;;;;7.90;1.60;;;;;;;20.26;61.40;99480.81;6097217;23;20235;-86
2023/06/05 04:00:53;;;;;;;7.97;2.17;;;;;;;20.30;60.62;99480.41;6097544;23;20494;-87
2023/06/05 04:03:21;;;;;;;5.80;1.10;;;;;;;20.38;60.24;99480.56;6095895;23;20192;-86
2023/06/05 04:05:47;;;;;;;9.47;1.53;;;;;;;20.42;60.04;99479.31;6095202;23;20152;-86
2023/06/05 04:08:14;;;;;;;8.43;1.60;;;;;;;20.35;60.24;99472.84;6097091;23;20490;-86
2023/06/05 04:10:42;;;;;;;6.50;1.60;;;;;;;20.31;61.03;99490.06;6096750;23;20256;-86
2023/06/05 04:13:08;;;;;;;7.27;1.37;;;;;;;20.30;61.61;99477.72;6097487;23;20227;-87
2023/06/05 04:15:36;;;;;;;8.63;1.13;;;;;;;20.39;60.86;99479.59;6097196;23;20171;-86
2023/06/05 04:18:03;;;;;;;5.23;1.47;;;;;;;20.48;60.32;99485.94;6097463;23;20560;-86
2023/06/05 04:20:29;;;;;;;13.33;1.57;;;;;;;20.54;59.72;99483.59;6097119;23;20168;-87
2023/06/05 04:22:55;;;;;;;5.80;1.43;;;;;;;20.56;59.61;99478.97;6096710;23;20516;-87
2023/06/05 04:25:22;;;;;;;4.87;1.00;;;;;;;20.59;59.98;99480.50;6096976;23;20165;-87
2023/06/05 04:27:51;;;;;;;6.23;1.03;;;;;;;20.53;60.38;99483.69;6096908;23;20160;-87
2023/06/05 04:30:17;;;;;;;6.47;1.43;;;;;;;20.64;59.93;99491.59;6097074;23;20152;-87
2023/06/05 04:32:42;;;;;;;11.57;1.23;;;;;;;20.78;58.92;99486.72;6096980;23;20599;-87
2023/06/05 04:35:09;;;;;;;4.87;1.40;;;;;;;20.88;57.67;99488.56;6095836;23;20157;-87
2023/06/05 04:37:36;;;;;;;2.60;0.90;;;;;;;20.92;58.62;99493.50;6097344;23;20215;-87
2023/06/05 04:40:05;;;;;;;9.50;0.90;;;;;;;20.95;58.22;99492.38;6096965;23;20158;-87
2023/06/05 04:42:34;;;;;;;6.07;2.07;;;;;;;20.98;57.64;99495.63;6097183;23;20186;-86
2023/06/05 04:45:04;;;;;;;7.60;2.00;;;;;;;20.88;59.10;99492.09;6097251;23;20557;-86
2023/06/05 04:47:31;;;;;;;6.57;1.53;;;;;;;20.81;60.78;99491.78;6097104;23;20152;-86
2023/06/05 04:50:06;;;;;;;5.10;1.47;;;;;;;20.90;60.06;99490.13;6096962;23;20153;-86
2023/06/05 04:52:35;;;;;;;5.97;1.27;;;;;;;20.86;60.56;99482.56;6097041;23;20147;-86
2023/06/05 04:55:01;;;;;;;4.87;1.30;;;;;;;20.88;61.14;99478.78;6098651;23;20152;-86
2023/06/05 04:57:29;;;;;;;8.80;2.40;;;;;;;20.97;60.94;99480.59;6099050;23;20149;-87
2023/06/05 04:59:56;;;;;;;4.17;1.30;;;;;;;21.17;59.84;99478.84;6099649;23;20560;-86
2023/06/05 05:02:22;;;;;;;4.40;1.30;;;;;;;21.42;59.78;99473.78;6098806;23;20214;-87
2023/06/05 05:04:47;;;;;;;4.30;1.40;;;;;;;21.74;58.02;99473.50;6098966;23;20148;-87
2023/06/05 05:07:15;;;;;;;10.07;1.83;;;;;;;21.92;57.29;99473.63;6099273;23;20235;-86
2023/06/05 05:09:41;;;;;;;3.53;1.50;;;;;;;22.14;57.52;99478.63;6099570;23;20153;-87
2023/06/05 05:12:07;;;;;;;3.63;0.83;;;;;;;22.21;56.87;99481.53;6098851;23;20156;-87
2023/06/05 05:14:32;;;;;;;2.97;0.90;;;;;;;22.44;55.15;99485.53;6099217;23;20153;-87
2023/06/05 05:16:58;;;;;;;3.87;1.20;;;;;;;22.69;55.14;99490.25;6099417;23;20157;-86
2023/06/05 05:19:25;;;;;;;9.23;1.00;;;;;;;22.91;53.33;99487.16;6098767;23;20183;-87
2023/06/05 05:21:51;;;;;;;7.87;1.30;;;;;;;23.14;52.80;99485.72;6098626;23;20173;-86
2023/06/05 05:24:18;;;;;;;5.03;1.10;;;;;;;23.24;53.44;99488.34;6098681;23;20172;-86
2023/06/05 05:26:46;;;;;;;8.20;1.27;;;;;;;23.32;52.26;99485.75;6098740;23;20149;-86
2023/06/05 05:29:12;;;;;;;10.90;1.80;;;;;;;23.42;52.85;99499.94;6099087;23;20299;-86
2023/06/05 05:31:39;;;;;;;5.27;1.17;;;;;;;23.65;52.03;99490.44;6098696;23;20164;-86
2023/06/05 05:34:05;;;;;;;2.63;1.20;;;;;;;23.78;52.28;99498.06;6098700;23;20148;-86
2023/06/05 05:36:33;;;;;;;5.67;1.07;;;;;;;23.81;53.08;99495.91;6098645;23;20148;-86
2023/06/05 05:39:00;;;;;;;3.30;1.10;;;;;;;23.84;53.17;99490.25;6098568;23;20222;-86
2023/06/05 05:41:26;;;;;;;4.13;1.00;;;;;;;23.84;52.47;99487.56;6098244;23;20153;-86
2023/06/05 05:43:53;;;;;;;8.23;1.50;;;;;;;23.82;53.48;99489.53;6098913;23;20159;-86
2023/06/05 05:46:20;;;;;;;6.17;1.40;;;;;;;23.95;53.81;99491.00;6099095;23;20163;-86
2023/06/05 05:48:45;;;;;;;7.57;1.47;;;;;;;24.04;52.67;99492.72;6098812;23;20231;-86
2023/06/05 05:51:11;;;;;;;5.30;1.30;;;;;;;24.04;53.81;99495.38;6098380;23;20232;-87
2023/06/05 05:53:38;;;;;;;5.77;1.20;;;;;;;24.13;53.68;99489.97;6099120;23;20144;-87
2023/06/05 05:56:04;;;;;;;8.03;1.77;;;;;;;24.11;52.14;99491.13;6098540;23;20215;-86
2023/06/05 05:58:31;;;;;;;4.27;1.13;;;;;;;24.23;53.50;99489.88;6098302;23;20247;-87
2023/06/05 06:01:02;;;;;;;6.13;1.50;;;;;;;24.32;52.00;99499.63;6098393;23;20162;-86
2023/06/05 06:03:27;;;;;;;7.40;1.20;;;;;;;24.41;49.88;99496.00;6096237;23;20180;-87
2023/06/05 06:05:53;;;;;;;4.13;1.37;;;;;;;24.48;50.94;99491.66;6097808;23;20153;-87
2023/06/05 06:08:19;;;;;;;2.73;1.13;;;;;;;24.54;50.88;99490.19;6096879;23;20511;-87
2023/06/05 06:10:45;;;;;;;12.87;1.40;;;;;;;24.65;51.81;99482.72;6098025;23;20611;-87
2023/06/05 06:13:11;;;;;;;8.33;1.63;;;;;;;24.65;49.75;99484.56;6098113;23;20158;-87
2023/06/05 06:15:41;;;;;;;4.70;1.07;;;;;;;24.74;50.96;99484.41;6097709;23;20152;-87
2023/06/05 06:18:06;;;;;;;3.33;1.20;;;;;;;24.78;51.34;99482.25;6098191;23;20456;-88
2023/06/05 06:20:33;;;;;;;5.87;1.00;;;;;;;24.70;49.36;99483.06;6098025;23;20159;-88
2023/06/05 06:22:59;;;;;;;6.73;1.50;;;;;;;24.79;49.69;99486.66;6096472;23;20193;-87
2023/06/05 06:25:28;;;;;;;7.10;1.90;;;;;;;25.00;50.13;99485.19;6097682;23;20644;-87
2023/06/05 06:27:58;;;;;;;3.53;1.00;;;;;;;25.07;50.51;99480.03;6097797;23;20172;-87
2023/06/05 06:30:24;;;;;;;4.57;1.13;;;;;;;25.19;49.27;99478.72;6098531;23;20224;-87
2023/06/05 06:32:50;;;;;;;4.53;1.00;;;;;;;25.27;49.08;99483.25;6097894;23;20163;-87
2023/06/05 06:35:16;;;;;;;5.13;1.10;;;;;;;25.39;50.11;99474.69;6096527;23;20222;-88
2023/06/05 06:37:43;;;;;;;3.37;1.03;;;;;;;25.61;49.22;99484.81;6098491;23;20149;-88
2023/06/05 06:40:09;;;;;;;4.93;1.33;;;;;;;25.76;48.81;99476.91;6097961;23;20157;-88
2023/06/05 06:42:35;;;;;;;3.03;1.10;;;;;;;25.99;48.19;99477.94;6097973;23;20601;-87
2023/06/05 06:45:01;;;;;;;6.37;1.23;;;;;;;26.18;47.86;99488.31;6096538;23;20163;-88
2023/06/05 06:47:30;;;;;;;5.73;1.57;;;;;;;26.42;46.28;99487.41;6096457;23;20164;-88
2023/06/05 06:49:56;;;;;;;6.05;1.20;;;;;;;26.48;48.02;99489.44;6097753;23;20214;-88
2023/06/05 06:52:22;;;;;;;5.72;1.38;;;;;;;26.56;48.12;99489.41;6096513;23;20148;-88
2023/06/05 06:54:48;;;;;;;7.32;1.48;;;;;;;26.77;48.10;99487.00;6096396;23;20577;-88
2023/06/05 06:57:16;;;;;;;7.85;1.52;;;;;;;26.99;46.08;99487.22;6096643;23;20183;-87
2023/06/05 06:59:42;;;;;;;5.80;1.30;;;;;;;26.99;46.22;99492.59;6096654;23;20153;-88
2023/06/05 07:02:11;;;;;;;2.78;1.33;;;;;;;26.98;45.17;99490.91;6097338;23;20259;-88
2023/06/05 07:04:38;;;;;;;4.10;1.20;;;;;;;27.15;47.36;99484.44;6096502;23;20539;-88
2023/06/05 07:07:04;;;;;;;3.00;1.20;;;;;;;27.30;46.42;99483.50;6097802;23;20159;-88
2023/06/05 07:09:30;;;;;;;4.30;1.48;;;;;;;27.57;46.44;99478.63;6096506;23;20164;-88
2023/06/05 07:11:55;;;;;;;9.88;1.70;;;;;;;27.69;45.20;99474.47;6098148;23;20149;-88
2023/06/05 07:14:22;;;;;;;4.15;1.10;;;;;;;27.89;44.69;99470.25;6097637;23;20153;-88
2023/06/05 07:16:48;;;;;;;9.63;1.52;;;;;;;28.02;42.49;99478.56;6097464;23;20489;-88
2023/06/05 07:19:15;;;;;;;8.75;2.10;;;;;;;28.04;43.61;99480.06;6097271;23;20163;-88
2023/06/05 07:21:41;;;;;;;9.10;1.95;;;;;;;28.06;43.51;99468.28;6096177;23;20153;-88
2023/06/05 07:24:07;;;;;;;4.72;1.75;;;;;;;28.10;42.82;99481.19;6097464;23;20560;-89
2023/06/05 07:26:33;;;;;;;5.40;1.58;;;;;;;27.95;44.44;99475.75;6097554;23;20153;-88
2023/06/05 07:28:58;;;;;;;3.10;1.08;;;;;;;27.90;45.05;99471.94;6096183;23;20611;-89
2023/06/05 07:31:24;;;;;;;5.80;1.85;;;;;;;28.06;44.64;99470.97;6097144;23;20149;-89
2023/06/05 07:33:49;;;;;;;3.75;1.10;;;;;;;28.37;44.79;99477.03;6097812;23;20215;-88
2023/06/05 07:36:15;;;;;;;4.15;1.23;;;;;;;28.54;42.10;99479.34;6120585;23;20160;-88
2023/06/05 07:38:41;;;;;;;4.15;1.10;;;;;;;28.56;42.02;99482.69;6097220;23;20152;-88
2023/06/05 07:41:12;;;;;;;2.05;0.88;;;;;;;28.68;42.69;99474.16;6096311;23;20175;-88
2023/06/05 07:43:41;;;;;;;4.80;1.40;;;;;;;28.76;43.18;99479.44;6097803;23;20183;-88
2023/06/05 07:46:08;;;;;;;4.85;1.38;;;;;;;28.90;40.46;99476.75;6097119;23;20164;-88
2023/06/05 07:48:35;;;;;;;5.28;1.30;;;;;;;28.97;43.73;99474.94;6097109;23;20231;-88
2023/06/05 07:51:00;;;;;;;5.75;1.35;;;;;;;29.01;43.43;99483.53;6096007;23;20167;-88
2023/06/05 07:53:26;;;;;;;3.72;1.40;;;;;;;29.19;43.17;99478.53;6097058;23;20211;-89
2023/06/05 07:55:52;;;;;;;3.38;1.70;;;;;;;29.24;43.45;99473.44;6097136;23;20160;-89
2023/06/05 07:58:21;;;;;;;6.45;1.30;;;;;;;29.42;42.00;99478.38;6095946;23;20160;-89
2023/06/05 08:00:47;;;;;;;7.72;1.70;;;;;;;29.74;39.81;99481.38;6119877;23;20152;-89
2023/06/05 08:03:20;;;;;;;6.47;1.40;;;;;;;29.83;40.21;99479.41;6096868;23;20224;-89
2023/06/05 08:05:51;;;;;;;7.00;1.13;;;;;;;29.88;38.95;99473.41;6097113;23;20581;-88
2023/06/05 08:08:17;;;;;;;3.65;0.90;;;;;;;29.89;38.17;99472.38;6097284;23;20568;-88
2023/06/05 08:10:43;;;;;;;1.88;0.85;;;;;;;29.76;39.78;99465.81;6097067;23;20152;-88
2023/06/05 08:13:09;;;;;;;6.50;1.33;;;;;;;29.82;39.30;99464.25;6096855;23;20148;-89
2023/06/05 08:15:35;;;;;;;3.70;1.10;;;;;;;29.84;40.65;99462.16;6096103;23;20152;-89
2023/06/05 08:18:01;;;;;;;7.40;1.55;;;;;;;29.83;39.27;99474.84;6095846;23;20171;-89
2023/06/05 08:20:26;;;;;;;9.68;1.83;;;;;;;30.04;38.21;99465.84;6096008;23;20157;-89
2023/06/05 08:22:57;;;;;;;7.18;1.48;;;;;;;30.06;37.46;99462.97;6095455;23;20200;-88
2023/06/05 08:25:25;;;;;;;3.53;1.20;;;;;;;30.12;38.79;99467.56;6095842;23;20504;-88
2023/06/05 08:27:58;;;;;;;4.88;1.55;;;;;;;30.24;37.85;99460.59;6096626;23;20274;-90
2023/06/05 08:30:24;;;;;;;3.00;1.30;;;;;;;30.18;40.02;99464.91;6095743;23;20161;-89
2023/06/05 08:32:50;;;;;;;3.70;1.40;;;;;;;30.23;40.91;99456.22;6096658;23;20158;-89
2023/06/05 08:35:16;;;;;;;4.18;1.30;;;;;;;30.49;40.57;99469.91;6096947;23;20477;-89
2023/06/05 08:37:41;;;;;;;3.15;1.38;;;;;;;30.59;38.95;99458.72;6097517;23;20152;-88
2023/06/05 08:40:10;;;;;;;6.75;1.23;;;;;;;30.67;37.51;99456.69;6095676;23;20235;-88
2023/06/05 08:42:38;;;;;;;5.50;1.80;;;;;;;30.57;38.19;99452.69;6096863;23;20573;-90
2023/06/05 08:45:08;;;;;;;5.43;1.13;;;;;;;30.67;37.45;99456.69;6094776;23;20227;-89
2023/06/05 08:47:37;;;;;;;5.43;1.35;;;;;;;30.80;37.55;99451.31;6096478;23;20211;-88
2023/06/05 08:50:05;;;;;;;8.25;1.17;;;;;;;30.73;37.75;99453.19;6096724;23;20152;-89
2023/06/05 08:52:36;;;;;;;2.55;1.10;;;;;;;30.73;36.11;99449.63;6095246;23;20530;-89
2023/06/05 08:55:07;;;;;;;2.63;1.13;;;;;;;30.78;36.44;99452.56;6097075;23;20195;-89
2023/06/05 08:57:36;;;;;;;2.10;0.85;;;;;;;30.74;34.50;99452.13;6095345;23;20163;-90
2023/06/05 09:00:17;;;;;;;;;;;;;;;;;;;;;
2023/06/05 09:02:43;;;;;;;8.20;1.42;;;;;;;30.58;35.98;99455.19;6096889;23;20275;-89
2023/06/05 09:05:09;;;;;;;4.10;1.33;;;;;;;30.50;36.20;99449.97;6095358;23;20192;-89
2023/06/05 09:07:47;;;;;;;;;;;;;;;;;;;;;
2023/06/05 09:10:26;;;;;;;7.10;0.90;;;;;;;30.43;36.25;99446.34;6097227;23;20220;-89
2023/06/05 09:13:11;;;;;;;;;;;;;;;;;;;;;
2023/06/05 09:15:40;;;;;;;3.20;1.45;;;;;;;30.12;36.83;99445.94;6096757;23;20228;-89
2023/06/05 09:18:08;;;;;;;4.15;1.15;;;;;;;30.14;36.41;99446.56;6096656;23;20149;-89
2023/06/05 09:20:35;;;;;;;4.05;1.25;;;;;;;30.41;35.91;99456.56;6096863;23;20153;-89
2023/06/05 09:23:02;;;;;;;3.20;1.10;;;;;;;30.56;37.75;99451.84;6096736;23;20230;-89
2023/06/05 09:25:50;;;;;;;4.80;1.20;;;;;;;30.54;35.43;99444.97;6095505;23;20193;-91
2023/06/05 09:28:16;;;;;;;4.55;1.20;;;;;;;30.82;38.33;99440.28;6096521;23;20152;-91
2023/06/05 09:30:57;;;;;;;4.43;1.40;;;;;;;30.78;38.26;99449.84;6096706;23;20159;-90
2023/06/05 09:33:26;;;;;;;6.15;1.48;;;;;;;30.99;36.53;99445.19;6096781;23;20159;-89
2023/06/05 09:36:11;;;;;;;4.18;1.77;;;;;;;30.97;36.86;99451.84;6096442;23;20231;-90
2023/06/05 09:38:39;;;;;;;6.38;1.40;;;;;;;30.90;37.54;99448.22;6097063;23;20136;-90
2023/06/05 09:41:10;;;;;;;3.13;1.25;;;;;;;30.96;37.16;99442.88;6098132;23;20152;-89
2023/06/05 09:43:38;;;;;;;2.88;1.05;;;;;;;31.04;36.58;99444.56;6098098;23;20187;-89
2023/06/05 09:46:08;;;;;;;7.72;1.30;;;;;;;31.20;36.25;99441.50;6098260;23;20224;-89
2023/06/05 09:48:35;;;;;;;3.50;1.27;;;;;;;30.94;35.10;99436.84;6098143;23;20152;-89
2023/06/05 09:51:37;;;;;;;3.60;1.25;;;;;;;30.96;35.00;99439.34;6098580;23;20639;-91
2023/06/05 09:54:04;;;;;;;5.05;1.23;;;;;;;31.01;35.91;99434.13;6098220;23;20572;-90
2023/06/05 09:56:33;;;;;;;4.80;1.42;;;;;;;31.18;34.39;99427.31;6095870;23;20533;-89
2023/06/05 09:59:21;;;;;;;5.22;1.23;;;;;;;31.48;36.48;99414.25;6096185;23;20160;-91
2023/06/05 10:01:53;;;;;;;5.60;1.10;;;;;;;31.45;35.39;99426.31;6093903;23;20183;-89
2023/06/05 10:04:25;;;;;;;2.28;0.93;;;;;;;31.60;34.39;99418.81;6096418;23;20137;-89
2023/06/05 10:07:02;;;;;;;2.45;0.88;;;;;;;31.60;34.82;99415.31;6096582;23;20140;-90
2023/06/05 10:09:31;;;;;;;1.80;0.90;;;;;;;31.77;33.25;99404.84;6095174;23;20168;-89
2023/06/05 10:11:59;;;;;;;4.93;1.30;;;;;;;31.82;32.31;99402.34;6096070;23;20490;-89
2023/06/05 10:14:30;;;;;;;8.05;1.02;;;;;;;31.66;33.94;99403.59;6097531;23;20168;-90
2023/06/05 10:17:36;;;;;;;;;;;;;;;;;;;;;
2023/06/05 10:20:46;;;;;;;3.80;0.90;;;;;;;31.31;33.49;99399.41;6094728;23;20243;-91
2023/06/05 10:23:29;;;;;;;2.33;0.70;;;;;;;31.27;35.13;99392.72;6098193;23;20216;-90
2023/06/05 10:26:31;;;;;;;;;;;;;;;;;;;;;
2023/06/05 10:36:18;;;;;;;2.90;1.00;;;;;;;31.26;31.27;99385.66;6087744;23;20160;-90
2023/06/05 10:38:45;;;;;;;4.22;1.15;;;;;;;31.22;32.72;99396.06;6096973;23;20164;-89
2023/06/05 10:41:15;;;;;;;2.63;1.10;;;;;;;31.52;31.17;99397.38;6097060;23;20573;-89
2023/06/05 10:43:52;;;;;;;2.65;0.95;;;;;;;31.66;30.12;99389.25;6097025;23;20191;-89
2023/06/05 10:46:32;;;;;;;5.45;1.05;;;;;;;31.72;31.10;99385.69;6098678;23;20207;-90
2023/06/05 10:53:44;;;;;;;6.63;1.30;;;;;;;31.78;29.55;99387.56;6066315;23;20168;-89
2023/06/05 10:56:48;;;;;;;2.42;0.90;;;;;;;32.21;31.39;99389.56;6054116;23;20172;-90
2023/06/05 10:59:15;;;;;;;1.85;0.90;;;;;;;32.30;29.88;99389.34;6066850;23;20161;-89
2023/06/05 11:02:48;;;;;;;4.82;1.00;;;;;;;31.99;27.88;99393.59;6092858;23;20170;-91
2023/06/05 11:05:13;;;;;;;4.13;1.13;;;;;;;31.87;30.84;99389.81;6121896;23;20175;-90
2023/06/05 11:08:11;;;;;;;6.88;0.90;;;;;;;31.88;30.05;99385.25;6096591;23;20560;-90
2023/06/05 11:10:57;;;;;;;3.45;1.58;;;;;;;31.99;30.67;99376.47;6097685;23;20153;-89
2023/06/05 11:13:24;;;;;;;2.47;1.10;;;;;;;32.34;31.35;99374.31;6098170;23;20152;-89
2023/06/05 11:16:00;;;;;;;2.67;1.08;;;;;;;32.30;29.47;99384.75;6097939;23;20153;-89
2023/06/05 11:19:09;;;;;;;2.20;0.85;;;;;;;32.15;27.92;99381.47;6098058;23;20219;-90
2023/06/05 11:22:09;;;;;;;3.33;0.85;;;;;;;31.98;28.58;99375.63;6083383;23;20191;-90
2023/06/05 11:24:37;;;;;;;3.03;1.15;;;;;;;32.15;30.13;99382.28;6097957;23;20159;-89
2023/06/05 11:27:05;;;;;;;5.68;1.08;;;;;;;32.14;29.30;99374.38;6097656;23;20160;-89
2023/06/05 11:29:32;;;;;;;4.38;1.10;;;;;;;32.21;27.82;99380.59;6097812;23;20152;-89
2023/06/05 11:32:00;;;;;;;2.75;1.10;;;;;;;32.36;27.65;99372.22;6096168;23;20153;-89
2023/06/05 11:34:29;;;;;;;1.83;0.85;;;;;;;32.15;26.80;99360.56;6097624;23;20175;-89
2023/06/05 11:36:59;;;;;;;2.53;0.98;;;;;;;32.04;27.23;99368.56;6097366;23;20184;-90
2023/06/05 11:39:45;;;;;;;2.95;1.00;;;;;;;32.30;27.47;99373.06;6096244;23;20183;-90
2023/06/05 11:42:11;;;;;;;2.17;1.13;;;;;;;32.32;26.75;99362.81;6096980;23;20503;-89
2023/06/05 11:44:37;;;;;;;2.05;0.88;;;;;;;32.25;27.12;99371.00;6096683;23;20167;-90
2023/06/05 11:47:56;;;;;;;2.55;1.50;;;;;;;32.22;27.04;99363.28;6096287;23;20160;-90
2023/06/05 11:50:26;;;;;;;2.78;0.82;;;;;;;31.88;27.72;99367.09;6071243;23;20167;-89
2023/06/05 11:53:07;;;;;;;3.58;1.05;;;;;;;32.04;26.38;99363.97;6097546;23;20172;-89
2023/06/05 11:58:28;;;;;;;3.88;0.82;;;;;;;32.25;25.19;99362.03;6097389;23;20140;-89
2023/06/05 12:01:21;;;;;;;2.92;0.70;;;;;;;32.28;26.11;99365.16;6096643;23;20144;-89
2023/06/05 12:04:02;;;;;;;2.75;0.80;;;;;;;32.45;26.26;99365.47;6095934;23;20512;-89
2023/06/05 12:06:39;;;;;;;;;;;;;;;;;;;;;
2023/06/05 12:09:11;;;;;;;2.42;0.88;;;;;;;32.15;25.01;99355.16;6097251;23;20236;-90